sensor_id;sensor_type;location;lat;lon;timestamp;temperature;humidity
43862;DHT22;29510;52.140;5.034;2023-04-25T00:04:31;6.70;29.60
43862;DHT22;29510;52.140;5.034;2023-04-25T00:14:34;6.70;23.50
43862;DHT22;29510;52.140;5.034;2023-04-25T00:24:36;6.70;12.00
43862;DHT22;29510;52.140;5.034;2023-04-25T00:34:37;6.60;14.30
43862;DHT22;29510;52.140;5.034;2023-04-25T00:44:38;6.40;4.30
43862;DHT22;29510;52.140;5.034;2023-04-25T00:54:40;6.20;2.10
43862;DHT22;29510;52.140;5.034;2023-04-25T01:04:42;6.00;6.00
43862;DHT22;29510;52.140;5.034;2023-04-25T01:14:44;5.80;10.40
43862;DHT22;29510;52.140;5.034;2023-04-25T01:24:45;5.70;10.10
43862;DHT22;29510;52.140;5.034;2023-04-25T01:34:46;5.60;15.60
43862;DHT22;29510;52.140;5.034;2023-04-25T01:44:47;5.60;20.90
43862;DHT22;29510;52.140;5.034;2023-04-25T01:54:49;5.40;14.60
43862;DHT22;29510;52.140;5.034;2023-04-25T02:04:51;5.30;13.20
43862;DHT22;29510;52.140;5.034;2023-04-25T02:14:52;5.20;13.90
43862;DHT22;29510;52.140;5.034;2023-04-25T02:24:54;5.10;15.10
43862;DHT22;29510;52.140;5.034;2023-04-25T02:34:55;4.90;14.80
43862;DHT22;29510;52.140;5.034;2023-04-25T02:44:59;5.00;23.30
43862;DHT22;29510;52.140;5.034;2023-04-25T02:55:00;5.10;38.10
43862;DHT22;29510;52.140;5.034;2023-04-25T03:05:02;5.30;48.40
43862;DHT22;29510;52.140;5.034;2023-04-25T03:15:04;5.40;34.00
43862;DHT22;29510;52.140;5.034;2023-04-25T03:25:06;5.50;30.10
43862;DHT22;29510;52.140;5.034;2023-04-25T03:35:08;5.40;20.20
43862;DHT22;29510;52.140;5.034;2023-04-25T03:45:09;5.30;23.30
43862;DHT22;29510;52.140;5.034;2023-04-25T03:55:11;5.40;37.40
43862;DHT22;29510;52.140;5.034;2023-04-25T04:05:12;5.30;48.90
43862;DHT22;29510;52.140;5.034;2023-04-25T04:15:14;5.30;58.90
43862;DHT22;29510;52.140;5.034;2023-04-25T04:25:15;5.30;59.60
43862;DHT22;29510;52.140;5.034;2023-04-25T04:35:17;5.20;49.20
43862;DHT22;29510;52.140;5.034;2023-04-25T04:45:18;5.10;38.80
43862;DHT22;29510;52.140;5.034;2023-04-25T04:55:20;5.10;22.90
43862;DHT22;29510;52.140;5.034;2023-04-25T05:05:21;5.20;27.10
43862;DHT22;29510;52.140;5.034;2023-04-25T05:15:22;5.30;29.90
43862;DHT22;29510;52.140;5.034;2023-04-25T05:25:23;5.40;29.20
43862;DHT22;29510;52.140;5.034;2023-04-25T05:35:24;5.60;24.90
43862;DHT22;29510;52.140;5.034;2023-04-25T05:45:26;5.70;20.80
43862;DHT22;29510;52.140;5.034;2023-04-25T05:55:27;5.80;20.70
43862;DHT22;29510;52.140;5.034;2023-04-25T06:05:28;5.80;18.80
43862;DHT22;29510;52.140;5.034;2023-04-25T06:15:30;6.00;21.30
43862;DHT22;29510;52.140;5.034;2023-04-25T06:25:33;6.10;20.90
43862;DHT22;29510;52.140;5.034;2023-04-25T06:35:34;6.50;17.10
43862;DHT22;29510;52.140;5.034;2023-04-25T06:45:35;7.00;3.30
43862;DHT22;29510;52.140;5.034;2023-04-25T06:55:36;7.70;1.00
43862;DHT22;29510;52.140;5.034;2023-04-25T07:05:37;7.80;1.00
43862;DHT22;29510;52.140;5.034;2023-04-25T07:15:39;8.00;1.00
43862;DHT22;29510;52.140;5.034;2023-04-25T07:25:40;7.80;1.00
43862;DHT22;29510;52.140;5.034;2023-04-25T07:35:41;7.30;1.00
43862;DHT22;29510;52.140;5.034;2023-04-25T07:45:43;7.40;1.00
43862;DHT22;29510;52.140;5.034;2023-04-25T07:55:44;7.40;1.00
43862;DHT22;29510;52.140;5.034;2023-04-25T08:05:45;7.60;1.00
43862;DHT22;29510;52.140;5.034;2023-04-25T08:15:46;8.10;1.00
43862;DHT22;29510;52.140;5.034;2023-04-25T08:25:47;8.80;1.00
43862;DHT22;29510;52.140;5.034;2023-04-25T08:35:49;9.10;1.00
43862;DHT22;29510;52.140;5.034;2023-04-25T08:45:53;9.30;1.00
43862;DHT22;29510;52.140;5.034;2023-04-25T08:55:57;9.70;1.00
43862;DHT22;29510;52.140;5.034;2023-04-25T09:05:58;9.70;1.00
43862;DHT22;29510;52.140;5.034;2023-04-25T09:16:00;9.70;1.00
43862;DHT22;29510;52.140;5.034;2023-04-25T09:26:01;10.50;1.00
43862;DHT22;29510;52.140;5.034;2023-04-25T09:36:07;10.70;1.00
43862;DHT22;29510;52.140;5.034;2023-04-25T09:46:10;10.30;1.00
43862;DHT22;29510;52.140;5.034;2023-04-25T09:56:12;9.40;1.00
43862;DHT22;29510;52.140;5.034;2023-04-25T10:06:19;9.20;1.00
43862;DHT22;29510;52.140;5.034;2023-04-25T10:16:21;9.30;1.00
43862;DHT22;29510;52.140;5.034;2023-04-25T10:26:23;9.80;1.00
43862;DHT22;29510;52.140;5.034;2023-04-25T10:36:25;10.20;1.00
43862;DHT22;29510;52.140;5.034;2023-04-25T10:46:30;11.00;1.00
43862;DHT22;29510;52.140;5.034;2023-04-25T11:07:04;10.50;1.00
43862;DHT22;29510;52.140;5.034;2023-04-25T11:17:09;11.30;1.00
43862;DHT22;29510;52.140;5.034;2023-04-25T11:27:12;11.40;1.00
43862;DHT22;29510;52.140;5.034;2023-04-25T11:37:14;11.40;1.00
43862;DHT22;29510;52.140;5.034;2023-04-25T11:47:15;10.80;1.00
43862;DHT22;29510;52.140;5.034;2023-04-25T11:57:19;10.00;1.00
43862;DHT22;29510;52.140;5.034;2023-04-25T12:07:20;9.10;1.00
43862;DHT22;29510;52.140;5.034;2023-04-25T12:17:23;8.80;1.00
43862;DHT22;29510;52.140;5.034;2023-04-25T12:27:25;9.30;1.00
43862;DHT22;29510;52.140;5.034;2023-04-25T12:37:28;9.70;1.00
43862;DHT22;29510;52.140;5.034;2023-04-25T12:47:29;10.20;1.00
43862;DHT22;29510;52.140;5.034;2023-04-25T12:57:30;10.70;1.00
43862;DHT22;29510;52.140;5.034;2023-04-25T13:07:31;12.40;1.00
43862;DHT22;29510;52.140;5.034;2023-04-25T13:17:32;13.30;1.00
43862;DHT22;29510;52.140;5.034;2023-04-25T13:27:34;13.80;1.00
43862;DHT22;29510;52.140;5.034;2023-04-25T13:37:37;14.60;1.00
43862;DHT22;29510;52.140;5.034;2023-04-25T13:47:38;14.50;1.00
43862;DHT22;29510;52.140;5.034;2023-04-25T13:57:39;12.90;1.00
43862;DHT22;29510;52.140;5.034;2023-04-25T14:07:40;12.90;1.00
43862;DHT22;29510;52.140;5.034;2023-04-25T14:17:41;12.80;1.00
43862;DHT22;29510;52.140;5.034;2023-04-25T14:27:42;11.30;1.00
43862;DHT22;29510;52.140;5.034;2023-04-25T14:37:44;10.30;1.00
43862;DHT22;29510;52.140;5.034;2023-04-25T14:47:45;11.00;1.00
43862;DHT22;29510;52.140;5.034;2023-04-25T14:57:46;11.30;1.00
43862;DHT22;29510;52.140;5.034;2023-04-25T15:07:48;11.20;1.00
43862;DHT22;29510;52.140;5.034;2023-04-25T15:17:49;11.20;1.00
43862;DHT22;29510;52.140;5.034;2023-04-25T15:27:50;10.50;1.00
43862;DHT22;29510;52.140;5.034;2023-04-25T15:37:52;9.90;1.00
43862;DHT22;29510;52.140;5.034;2023-04-25T15:47:55;10.10;1.00
43862;DHT22;29510;52.140;5.034;2023-04-25T15:57:56;10.30;1.00
43862;DHT22;29510;52.140;5.034;2023-04-25T16:07:57;10.00;1.00
43862;DHT22;29510;52.140;5.034;2023-04-25T16:17:58;10.20;1.00
43862;DHT22;29510;52.140;5.034;2023-04-25T16:27:59;10.60;1.00
43862;DHT22;29510;52.140;5.034;2023-04-25T16:38:00;10.40;1.00
43862;DHT22;29510;52.140;5.034;2023-04-25T16:48:02;10.20;1.00
43862;DHT22;29510;52.140;5.034;2023-04-25T16:58:03;10.10;1.00
43862;DHT22;29510;52.140;5.034;2023-04-25T17:08:06;10.10;1.00
43862;DHT22;29510;52.140;5.034;2023-04-25T17:18:07;9.90;1.00
43862;DHT22;29510;52.140;5.034;2023-04-25T17:28:08;9.70;1.00
43862;DHT22;29510;52.140;5.034;2023-04-25T17:38:09;9.30;1.00
43862;DHT22;29510;52.140;5.034;2023-04-25T17:48:10;9.00;1.00
43862;DHT22;29510;52.140;5.034;2023-04-25T17:58:11;8.80;1.00
43862;DHT22;29510;52.140;5.034;2023-04-25T18:08:12;8.40;1.00
43862;DHT22;29510;52.140;5.034;2023-04-25T18:18:14;8.30;1.00
43862;DHT22;29510;52.140;5.034;2023-04-25T18:28:20;8.20;1.00
43862;DHT22;29510;52.140;5.034;2023-04-25T18:38:22;8.00;1.00
43862;DHT22;29510;52.140;5.034;2023-04-25T18:48:23;7.90;1.00
43862;DHT22;29510;52.140;5.034;2023-04-25T18:58:24;7.70;1.00
43862;DHT22;29510;52.140;5.034;2023-04-25T19:08:26;7.60;1.00
43862;DHT22;29510;52.140;5.034;2023-04-25T19:18:27;7.40;1.00
43862;DHT22;29510;52.140;5.034;2023-04-25T19:28:28;7.10;1.00
43862;DHT22;29510;52.140;5.034;2023-04-25T19:38:30;6.90;1.00
43862;DHT22;29510;52.140;5.034;2023-04-25T19:48:31;6.80;1.00
43862;DHT22;29510;52.140;5.034;2023-04-25T19:58:32;6.50;1.00
43862;DHT22;29510;52.140;5.034;2023-04-25T20:08:34;6.50;1.00
43862;DHT22;29510;52.140;5.034;2023-04-25T20:18:36;6.60;1.00
43862;DHT22;29510;52.140;5.034;2023-04-25T20:28:37;6.60;1.00
43862;DHT22;29510;52.140;5.034;2023-04-25T20:38:38;6.70;1.00
43862;DHT22;29510;52.140;5.034;2023-04-25T20:48:39;6.50;1.00
43862;DHT22;29510;52.140;5.034;2023-04-25T20:58:41;6.20;1.00
43862;DHT22;29510;52.140;5.034;2023-04-25T21:08:42;6.00;1.00
43862;DHT22;29510;52.140;5.034;2023-04-25T21:18:43;5.70;1.00
43862;DHT22;29510;52.140;5.034;2023-04-25T21:28:44;5.70;1.00
43862;DHT22;29510;52.140;5.034;2023-04-25T21:38:47;5.60;1.00
43862;DHT22;29510;52.140;5.034;2023-04-25T21:48:48;5.40;1.00
43862;DHT22;29510;52.140;5.034;2023-04-25T21:58:49;5.30;1.00
43862;DHT22;29510;52.140;5.034;2023-04-25T22:08:50;5.20;1.00
43862;DHT22;29510;52.140;5.034;2023-04-25T22:18:51;5.20;1.00
43862;DHT22;29510;52.140;5.034;2023-04-25T22:28:54;5.10;1.00
43862;DHT22;29510;52.140;5.034;2023-04-25T22:38:55;5.00;1.00
43862;DHT22;29510;52.140;5.034;2023-04-25T22:48:56;4.90;1.00
43862;DHT22;29510;52.140;5.034;2023-04-25T22:58:57;4.90;1.00
43862;DHT22;29510;52.140;5.034;2023-04-25T23:08:58;4.80;1.00
43862;DHT22;29510;52.140;5.034;2023-04-25T23:19:00;4.60;1.00
43862;DHT22;29510;52.140;5.034;2023-04-25T23:29:01;4.70;1.00
43862;DHT22;29510;52.140;5.034;2023-04-25T23:39:03;4.70;1.00
43862;DHT22;29510;52.140;5.034;2023-04-25T23:49:05;4.60;1.00
43862;DHT22;29510;52.140;5.034;2023-04-25T23:59:09;4.40;1.00
